Spencer, IN

2:37 PM EDT on August 30, 2015 (GMT -0400)
Ellettsville Area | | Change Station
CLOSE
Current Station
Personal Weather Station
Location: Spencer, IN
Elevation: 738 ft
Nearby Weather Stations

Elev 738 ft 39.21 °N, 86.68 °W | Updated 8 minutes ago

Mostly Cloudy
Mostly Cloudy
84.2 °F
Feels Like 88 °F
N
3.0
Wind Variable Wind from SW
Gusts 5.0 mph

Today
High -- | Low -- °F
--% Chance of Precip.
Yesterday
High -- | Low -- °F
Precip. -- in
7:13 AM 8:21 PM
Full, 98% visible
Pressure 30.06 in
Visibility 10.0 miles
Clouds Mostly Cloudy 8500 ft
Heat Index 88 °F
Dew Point 68 °F
Humidity 59%
Rainfall 0.00 in
Snow Depth Not available.
UV 5 out of 12
Pollen 10.30 out of 12
Air Quality Not available.
Flu Activity Not available.
METAR KBMG 301753Z 22004KT 10SM BKN085 29/19 A3009 RMK AO2 SLP180 T02890189 10289 20211 58006
Pressure 30.06 in
Visibility 10.0 miles
Clouds Mostly Cloudy 8500 ft
Heat Index 88 °F
Dew Point 68 °F
Humidity 59%
Rainfall 0.00 in
Snow Depth Not available.
UV 5 out of 12
Pollen 10.30 out of 12
Air Quality Not available.
Flu Activity Not available.
METAR KBMG 301753Z 22004KT 10SM BKN085 29/19 A3009 RMK AO2 SLP180 T02890189 10289 20211 58006

10-Day Weather Forecast

×

Almanac

Astronomy

Aug. 30, 2015 Rise Set
Actual Time
Civil Twilight
Nautical Twilight
Astronomical Twilight
Moon
Length of Visible Light
Length of Day
Tomorrow will be .
, % of the Moon is Illuminated

Today's Extremes

State Highs State Lows

Community

WunderPhotos

Upload Photos

1,851,031 photos uploaded!

WunderBlogs® & News

Nearby

Air Quality

  Air Quality AQ Index Pollutant
Not available.

Snow Depth

Station Depth Elevation

Earthquake Activity

City Distance Mag. Time & Date
Minimum magnitude displayed is 2.5.

Coastal Water Temperatures

Place Temperature

Stations

Nearby Weather Stations

Station Location Temp. Windchill Dew Point Humidity Wind Precip. Elev Updated Type